Time;durP1;ratioP1;P1;durP2;ratioP2;P2;SDS_P1;SDS_P2;PMS_P1;PMS_P2;Temp;Humidity;BMP_temperature;BMP_pressure;BME280_temperature;BME280_humidity;BME280_pressure;Samples;Min_cycle;Max_cycle;Signal;HPM_P1;HPM_P2
2023/06/24 00:00:37;;;;;;;3.90;3.60;;;;;;;19.65;100.00;99050.23;109378;1253;59041;-78
2023/06/24 00:03:23;;;;;;;4.50;4.20;;;;;;;19.64;100.00;99038.46;109256;1253;74872;-77
2023/06/24 00:05:50;;;;;;;5.80;3.70;;;;;;;19.63;100.00;99034.59;109356;1253;59081;-77
2023/06/24 00:08:22;;;;;;;4.10;3.70;;;;;;;19.62;100.00;99033.92;109340;1253;63903;-77
2023/06/24 00:10:50;;;;;;;5.00;3.70;;;;;;;19.62;100.00;99033.79;109365;1254;58968;-77
2023/06/24 00:13:17;;;;;;;3.80;3.10;;;;;;;19.60;100.00;99027.45;109400;1253;58878;-76
2023/06/24 00:15:44;;;;;;;3.90;3.50;;;;;;;19.59;100.00;99027.38;109396;1253;66271;-76
2023/06/24 00:18:10;;;;;;;7.00;4.30;;;;;;;19.57;100.00;99023.81;109331;1253;59052;-76
2023/06/24 00:20:37;;;;;;;7.00;5.10;;;;;;;19.55;100.00;99013.57;109342;1253;59092;-76
2023/06/24 00:23:04;;;;;;;6.20;4.70;;;;;;;19.52;100.00;99011.83;109332;1253;58918;-77
2023/06/24 00:25:30;;;;;;;5.80;4.00;;;;;;;19.51;100.00;99011.48;109354;1253;59059;-77
2023/06/24 00:27:58;;;;;;;5.60;3.80;;;;;;;19.49;100.00;99013.64;109372;1253;66021;-77
2023/06/24 00:30:26;;;;;;;5.80;3.90;;;;;;;19.48;100.00;99010.69;109228;1253;60399;-76
2023/06/24 00:32:53;;;;;;;5.30;4.40;;;;;;;19.46;100.00;99008.91;109101;1253;62644;-77
2023/06/24 00:35:20;;;;;;;5.60;3.90;;;;;;;19.43;100.00;99009.27;109336;1253;59006;-77
2023/06/24 00:37:47;;;;;;;5.10;4.60;;;;;;;19.40;100.00;99011.38;109364;1253;59072;-77
2023/06/24 00:40:16;;;;;;;7.80;6.30;;;;;;;19.38;100.00;99013.05;109357;1253;64863;-77
2023/06/24 00:42:44;;;;;;;7.30;6.60;;;;;;;19.34;100.00;99016.49;109068;1253;60039;-77
2023/06/24 00:45:11;;;;;;;7.90;7.20;;;;;;;19.30;100.00;99022.59;109195;1253;64025;-77
2023/06/24 00:47:38;;;;;;;8.70;7.80;;;;;;;19.28;100.00;99022.68;109371;1253;59304;-76
2023/06/24 00:50:06;;;;;;;8.10;6.80;;;;;;;19.26;100.00;99024.63;109367;1254;59145;-76
2023/06/24 00:52:33;;;;;;;6.30;5.50;;;;;;;19.26;100.00;99033.98;109382;1253;66045;-76
2023/06/24 00:55:01;;;;;;;5.20;4.70;;;;;;;19.26;100.00;99036.55;109342;1253;60113;-76
2023/06/24 00:57:28;;;;;;;6.00;4.20;;;;;;;19.24;100.00;99034.23;109021;1253;64247;-77
2023/06/24 00:59:56;;;;;;;5.00;4.50;;;;;;;19.22;100.00;99031.38;109368;1253;59163;-77
2023/06/24 01:02:27;;;;;;;4.20;3.80;;;;;;;19.20;100.00;99031.39;109404;1253;59029;-77
2023/06/24 01:04:54;;;;;;;3.40;3.20;;;;;;;19.18;100.00;99032.50;109385;1253;64610;-76
2023/06/24 01:07:21;;;;;;;4.80;3.20;;;;;;;19.18;100.00;99035.95;109410;1253;59906;-77
2023/06/24 01:09:48;;;;;;;4.40;3.80;;;;;;;19.18;100.00;99041.20;109353;1253;65184;-77
2023/06/24 01:12:15;;;;;;;4.70;3.10;;;;;;;19.19;100.00;99047.02;109144;1253;279923;-77
2023/06/24 01:14:42;;;;;;;4.10;3.20;;;;;;;19.19;100.00;99048.23;109349;1253;58943;-77
2023/06/24 01:17:12;;;;;;;3.60;3.30;;;;;;;19.18;100.00;99045.70;109055;1253;64832;-76
2023/06/24 01:20:00;;;;;;;6.80;4.00;;;;;;;19.18;100.00;99050.90;109377;1253;59038;-76
2023/06/24 01:22:47;;;;;;;4.30;3.90;;;;;;;19.18;100.00;99053.43;109363;1253;63492;-78
2023/06/24 01:25:44;;;;;;;3.40;3.10;;;;;;;19.17;100.00;99055.65;109371;1253;59009;-76
2023/06/24 01:28:43;;;;;;;3.70;3.30;;;;;;;19.17;100.00;99057.50;109381;1253;58920;-77
2023/06/24 01:31:34;;;;;;;5.00;3.40;;;;;;;19.16;100.00;99055.60;109405;1253;64834;-76
2023/06/24 01:34:11;;;;;;;4.00;3.60;;;;;;;19.16;100.00;99055.91;109401;1253;60060;-78
2023/06/24 01:36:44;;;;;;;4.40;2.90;;;;;;;19.16;100.00;99054.02;109372;1253;64111;-77
2023/06/24 01:39:13;;;;;;;4.00;3.50;;;;;;;19.17;100.00;99049.55;109370;1253;59202;-78
2023/06/24 01:42:02;;;;;;;3.60;3.30;;;;;;;19.18;100.00;99048.36;109370;1253;59004;-77
2023/06/24 01:44:30;;;;;;;5.10;4.30;;;;;;;19.19;100.00;99045.02;109400;1253;66020;-77
2023/06/24 01:46:58;;;;;;;6.50;4.20;;;;;;;19.19;100.00;99046.67;109361;1253;59956;-77
2023/06/24 01:49:29;;;;;;;6.20;5.20;;;;;;;19.17;100.00;99047.36;109342;1253;62863;-77
2023/06/24 01:51:58;;;;;;;6.80;5.50;;;;;;;19.19;100.00;99045.74;109017;1253;58985;-77
2023/06/24 01:54:28;;;;;;;8.30;5.50;;;;;;;19.19;100.00;99049.85;109442;1253;58969;-77
2023/06/24 01:56:57;;;;;;;5.80;5.30;;;;;;;19.19;100.00;99045.63;109212;1253;66023;-77
2023/06/24 01:59:27;;;;;;;5.70;5.20;;;;;;;19.17;100.00;99045.07;109376;1253;59445;-77
2023/06/24 02:01:54;;;;;;;5.10;4.50;;;;;;;19.17;100.00;99049.05;109360;1253;62868;-77
2023/06/24 02:04:21;;;;;;;4.50;3.90;;;;;;;19.17;100.00;99052.61;109348;1253;59120;-78
2023/06/24 02:06:48;;;;;;;4.30;3.90;;;;;;;19.17;100.00;99051.88;109377;1253;58963;-77
2023/06/24 02:09:18;;;;;;;5.80;4.00;;;;;;;19.17;100.00;99048.67;109069;1253;66044;-77
2023/06/24 02:11:46;;;;;;;4.60;3.90;;;;;;;19.17;100.00;99048.09;109231;1253;60652;-77
2023/06/24 02:14:15;;;;;;;6.30;4.50;;;;;;;19.19;100.00;99043.27;109238;1253;64112;-77
2023/06/24 02:16:44;;;;;;;5.80;4.10;;;;;;;19.18;100.00;99042.12;109337;1253;58962;-77
2023/06/24 02:19:11;;;;;;;6.00;5.20;;;;;;;19.17;100.00;99039.85;109355;1253;58994;-76
2023/06/24 02:21:41;;;;;;;7.80;6.00;;;;;;;19.16;100.00;99034.13;109382;1253;66146;-77
2023/06/24 02:24:08;;;;;;;7.50;5.40;;;;;;;19.16;100.00;99034.23;109381;1253;60181;-77
2023/06/24 02:26:40;;;;;;;5.20;4.70;;;;;;;19.14;100.00;99035.61;109088;1253;64052;-76
2023/06/24 02:29:12;;;;;;;7.00;4.50;;;;;;;19.13;100.00;99035.80;109349;1254;59007;-76
2023/06/24 02:31:39;;;;;;;4.30;3.90;;;;;;;19.11;100.00;99037.27;109369;1253;59104;-77
2023/06/24 02:34:06;;;;;;;4.30;4.00;;;;;;;19.08;100.00;99033.92;109408;1253;66046;-77
2023/06/24 02:36:32;;;;;;;4.20;3.80;;;;;;;19.05;100.00;99038.66;109375;1253;58988;-77
2023/06/24 02:38:59;;;;;;;9.00;4.10;;;;;;;19.02;100.00;99041.14;109362;1253;72915;-77
2023/06/24 02:41:25;;;;;;;6.80;4.20;;;;;;;19.01;100.00;99044.14;109390;1253;59256;-78
2023/06/24 02:43:52;;;;;;;4.10;3.80;;;;;;;19.01;100.00;99046.16;109042;1253;59076;-78
2023/06/24 02:46:20;;;;;;;5.00;4.60;;;;;;;19.01;100.00;99046.52;109389;1253;66099;-77
2023/06/24 02:48:47;;;;;;;5.10;4.60;;;;;;;19.01;100.00;99044.36;109408;1253;60352;-77
2023/06/24 02:51:15;;;;;;;6.60;4.60;;;;;;;19.00;100.00;99040.63;109388;1253;64952;-76
2023/06/24 02:53:42;;;;;;;7.30;5.20;;;;;;;19.00;100.00;99041.77;109358;1253;59297;-77
2023/06/24 02:56:09;;;;;;;5.70;5.20;;;;;;;19.00;100.00;99042.84;109404;1253;61468;-77
2023/06/24 02:58:38;;;;;;;5.60;5.10;;;;;;;18.99;100.00;99043.10;109392;1253;64817;-76
2023/06/24 03:01:06;;;;;;;6.00;4.70;;;;;;;18.98;100.00;99044.98;109392;1255;58990;-77
2023/06/24 03:03:35;;;;;;;6.50;4.80;;;;;;;18.97;100.00;99042.79;109413;1253;62597;-77
2023/06/24 03:06:02;;;;;;;5.10;4.60;;;;;;;18.96;100.00;99041.98;109399;1253;59000;-77
2023/06/24 03:08:29;;;;;;;5.40;4.90;;;;;;;18.96;100.00;99043.77;109398;1253;58958;-77
2023/06/24 03:10:57;;;;;;;4.90;4.50;;;;;;;18.96;100.00;99044.00;109418;1253;66211;-78
2023/06/24 03:13:24;;;;;;;4.90;4.50;;;;;;;18.96;100.00;99046.63;109385;1253;61016;-77
2023/06/24 03:15:50;;;;;;;4.90;4.40;;;;;;;18.98;100.00;99048.13;109385;1253;64017;-77
2023/06/24 03:18:18;;;;;;;5.80;4.30;;;;;;;18.99;100.00;99048.00;109397;1253;58972;-77
2023/06/24 03:20:45;;;;;;;5.30;4.80;;;;;;;18.99;100.00;99053.23;109391;1254;59100;-77
2023/06/24 03:23:12;;;;;;;5.50;5.00;;;;;;;18.99;100.00;99052.80;109402;1253;66007;-77
2023/06/24 03:25:38;;;;;;;4.70;4.30;;;;;;;19.01;100.00;99056.42;109386;1253;58914;-77
2023/06/24 03:28:07;;;;;;;6.50;4.30;;;;;;;19.01;100.00;99056.42;109382;1253;64111;-77
2023/06/24 03:30:33;;;;;;;4.90;4.40;;;;;;;19.02;100.00;99058.11;109383;1253;59034;-77
2023/06/24 03:33:00;;;;;;;5.90;5.10;;;;;;;19.04;100.00;99058.11;109377;1253;59624;-77
2023/06/24 03:35:26;;;;;;;5.40;4.90;;;;;;;19.06;100.00;99059.98;109405;1253;65718;-77
2023/06/24 03:37:53;;;;;;;6.10;4.50;;;;;;;19.09;100.00;99063.86;109410;1253;59073;-77
2023/06/24 03:40:19;;;;;;;5.10;4.70;;;;;;;19.11;100.00;99066.07;109429;1253;59011;-76
2023/06/24 03:42:46;;;;;;;5.40;4.90;;;;;;;19.12;100.00;99070.94;109366;1253;58960;-77
2023/06/24 03:45:12;;;;;;;5.30;4.80;;;;;;;19.13;100.00;99070.14;109434;1253;59392;-77
2023/06/24 03:47:39;;;;;;;5.40;4.90;;;;;;;19.12;100.00;99071.33;109057;1253;59092;-77
2023/06/24 03:50:06;;;;;;;5.10;4.50;;;;;;;19.12;100.00;99074.97;109389;1253;59199;-76
2023/06/24 03:52:32;;;;;;;5.40;4.90;;;;;;;19.13;100.00;99080.61;109425;1253;64608;-77
2023/06/24 03:55:01;;;;;;;6.20;4.90;;;;;;;19.13;100.00;99081.48;109391;1253;59039;-77
2023/06/24 03:57:28;;;;;;;5.20;4.80;;;;;;;19.13;100.00;99082.27;109415;1253;58874;-77
2023/06/24 03:59:54;;;;;;;5.60;5.20;;;;;;;19.11;100.00;99085.18;109398;1253;64794;-77
2023/06/24 04:02:21;;;;;;;6.30;4.80;;;;;;;19.11;100.00;99084.61;109449;1253;58936;-77
2023/06/24 04:04:51;;;;;;;5.30;4.40;;;;;;;19.09;100.00;99086.57;109450;1253;62833;-76
2023/06/24 04:07:27;;;;;;;6.00;5.20;;;;;;;19.09;100.00;99090.37;109363;1253;59070;-77
2023/06/24 04:09:55;;;;;;;4.90;4.40;;;;;;;19.10;100.00;99088.27;109370;1254;58908;-78
2023/06/24 04:12:22;;;;;;;5.90;4.70;;;;;;;19.10;100.00;99087.20;109368;1253;66091;-77
2023/06/24 04:14:48;;;;;;;5.40;4.90;;;;;;;19.10;100.00;99094.46;109421;1253;60383;-77
2023/06/24 04:17:15;;;;;;;5.20;4.80;;;;;;;19.09;100.00;99093.21;109419;1253;62819;-78
2023/06/24 04:19:42;;;;;;;5.40;5.00;;;;;;;19.09;100.00;99091.59;109427;1253;58955;-77
2023/06/24 04:22:08;;;;;;;6.20;5.70;;;;;;;19.08;100.00;99091.54;109413;1253;58839;-77
2023/06/24 04:24:34;;;;;;;5.70;5.20;;;;;;;19.08;100.00;99094.94;109427;1253;64838;-78
2023/06/24 04:27:01;;;;;;;5.70;5.20;;;;;;;19.10;100.00;99093.14;109391;1253;58866;-77
2023/06/24 04:29:27;;;;;;;7.60;5.30;;;;;;;19.12;100.00;99092.11;109397;1253;59048;-77
2023/06/24 04:31:54;;;;;;;6.20;5.10;;;;;;;19.12;100.00;99090.40;109019;1253;59164;-78
2023/06/24 04:34:20;;;;;;;6.40;5.80;;;;;;;19.15;100.00;99090.48;109417;1253;59139;-77
2023/06/24 04:36:47;;;;;;;7.30;5.90;;;;;;;19.16;100.00;99095.21;109399;1253;58991;-78
2023/06/24 04:39:13;;;;;;;10.30;5.80;;;;;;;19.18;100.00;99097.77;109464;1253;58913;-77
2023/06/24 04:41:40;;;;;;;8.00;7.30;;;;;;;19.20;100.00;99099.89;109406;1253;59098;-78
2023/06/24 04:44:06;;;;;;;8.20;7.50;;;;;;;19.18;100.00;99102.57;109392;1253;59144;-77
2023/06/24 04:46:34;;;;;;;8.50;7.50;;;;;;;19.16;100.00;99107.11;109445;1253;58987;-78
2023/06/24 04:49:01;;;;;;;8.50;7.40;;;;;;;19.14;100.00;99112.97;109450;1253;65692;-77
2023/06/24 04:51:27;;;;;;;7.90;7.20;;;;;;;19.08;100.00;99118.18;109401;1253;59025;-77
2023/06/24 04:53:55;;;;;;;8.60;7.80;;;;;;;19.03;100.00;99116.35;109248;1253;59116;-77
2023/06/24 04:56:21;;;;;;;9.00;7.30;;;;;;;18.97;100.00;99114.09;108975;1257;58986;-77
2023/06/24 04:58:48;;;;;;;9.90;8.90;;;;;;;18.91;100.00;99117.23;109004;1257;59046;-77
2023/06/24 05:01:14;;;;;;;9.50;8.60;;;;;;;18.84;100.00;99118.95;109010;1257;66056;-78
2023/06/24 05:03:41;;;;;;;10.90;9.70;;;;;;;18.80;100.00;99120.96;108952;1257;60061;-77
2023/06/24 05:06:07;;;;;;;11.40;10.20;;;;;;;18.78;100.00;99123.70;108970;1257;59261;-77
2023/06/24 05:08:34;;;;;;;11.70;10.50;;;;;;;18.75;100.00;99123.80;108990;1257;59122;-78
2023/06/24 05:11:00;;;;;;;11.70;10.60;;;;;;;18.74;100.00;99131.13;108992;1259;58988;-77
2023/06/24 05:13:27;;;;;;;12.70;11.40;;;;;;;18.73;100.00;99130.95;109010;1257;59023;-77
2023/06/24 05:15:54;;;;;;;13.30;12.00;;;;;;;18.75;100.00;99132.05;108840;1257;59061;-77
2023/06/24 05:18:20;;;;;;;13.80;12.30;;;;;;;18.80;100.00;99133.05;108979;1258;59109;-77
2023/06/24 05:20:47;;;;;;;15.90;13.30;;;;;;;18.82;100.00;99129.39;108988;1257;59311;-77
2023/06/24 05:23:13;;;;;;;16.10;14.00;;;;;;;18.85;100.00;99131.08;109045;1257;59334;-77
2023/06/24 05:25:40;;;;;;;15.50;14.10;;;;;;;18.85;100.00;99129.31;109004;1257;58933;-77
2023/06/24 05:28:06;;;;;;;15.50;13.90;;;;;;;18.87;100.00;99132.15;109296;1253;59422;-77
2023/06/24 05:30:33;;;;;;;15.30;13.70;;;;;;;18.95;100.00;99131.73;109320;1254;59047;-77
2023/06/24 05:32:59;;;;;;;16.40;14.70;;;;;;;18.98;100.00;99131.80;109302;1254;59450;-76
2023/06/24 05:35:26;;;;;;;15.40;13.70;;;;;;;19.03;100.00;99134.91;109327;1254;59879;-77
2023/06/24 05:37:52;;;;;;;16.00;14.40;;;;;;;19.12;100.00;99134.16;109306;1254;59397;-76
2023/06/24 05:40:19;;;;;;;14.90;12.60;;;;;;;19.24;100.00;99134.39;109321;1254;59569;-78
2023/06/24 05:42:45;;;;;;;15.70;13.00;;;;;;;19.34;100.00;99135.89;109314;1254;59069;-77
2023/06/24 05:45:11;;;;;;;16.20;12.70;;;;;;;19.45;100.00;99135.18;109284;1254;59371;-77
2023/06/24 05:47:38;;;;;;;15.30;13.20;;;;;;;19.50;100.00;99137.41;109316;1254;59032;-76
2023/06/24 05:50:05;;;;;;;14.60;13.00;;;;;;;19.48;100.00;99142.44;109294;1254;58984;-76
2023/06/24 05:52:31;;;;;;;15.30;13.30;;;;;;;19.48;100.00;99142.96;109291;1254;59955;-76
2023/06/24 05:54:58;;;;;;;16.40;14.30;;;;;;;19.51;100.00;99148.44;109307;1254;58996;-76
2023/06/24 05:57:24;;;;;;;17.90;15.40;;;;;;;19.56;100.00;99152.09;109289;1254;59259;-77
2023/06/24 05:59:51;;;;;;;18.10;15.30;;;;;;;19.62;100.00;99153.61;108989;1254;59464;-77
2023/06/24 06:02:17;;;;;;;19.60;16.80;;;;;;;19.65;100.00;99153.29;109308;1254;59123;-76
2023/06/24 06:04:44;;;;;;;17.60;15.70;;;;;;;19.71;100.00;99156.00;109318;1254;59023;-77
2023/06/24 06:07:11;;;;;;;18.60;16.70;;;;;;;19.74;100.00;99159.81;109295;1254;64154;-76
2023/06/24 06:09:37;;;;;;;21.20;17.00;;;;;;;19.73;100.00;99159.49;109011;1254;59427;-76
2023/06/24 06:12:04;;;;;;;18.20;16.40;;;;;;;19.71;100.00;99159.58;109282;1254;59068;-77
2023/06/24 06:14:31;;;;;;;21.70;17.20;;;;;;;19.62;100.00;99160.09;108982;1254;66028;-77
2023/06/24 06:16:57;;;;;;;20.60;17.80;;;;;;;19.58;100.00;99161.09;109296;1257;59028;-77
2023/06/24 06:19:24;;;;;;;21.10;17.40;;;;;;;19.62;100.00;99158.86;109310;1254;59416;-76
2023/06/24 06:21:51;;;;;;;19.30;17.20;;;;;;;19.72;100.00;99167.25;109280;1254;59033;-76
2023/06/24 06:24:17;;;;;;;21.50;18.10;;;;;;;19.77;100.00;99168.89;109274;1256;59129;-76
2023/06/24 06:26:44;;;;;;;21.80;17.50;;;;;;;19.79;100.00;99170.11;109326;1255;59632;-77
2023/06/24 06:29:11;;;;;;;22.50;18.90;;;;;;;19.82;100.00;99170.75;109317;1254;58999;-76
2023/06/24 06:31:39;;;;;;;23.60;19.50;;;;;;;19.85;100.00;99170.40;109157;1254;64081;-77
2023/06/24 06:34:05;;;;;;;21.80;19.40;;;;;;;19.83;100.00;99172.11;109287;1254;58932;-77
2023/06/24 06:36:32;;;;;;;25.20;19.40;;;;;;;19.79;100.00;99176.67;109292;1254;58973;-77
2023/06/24 06:38:58;;;;;;;21.70;19.30;;;;;;;19.70;100.00;99175.16;109314;1254;59331;-77
2023/06/24 06:41:25;;;;;;;26.20;19.90;;;;;;;19.64;100.00;99176.47;109281;1254;59000;-77
2023/06/24 06:43:52;;;;;;;23.70;21.00;;;;;;;19.61;100.00;99177.20;108972;1255;59012;-77
2023/06/24 06:46:19;;;;;;;24.70;21.30;;;;;;;19.59;100.00;99176.34;109287;1257;58892;-78
2023/06/24 06:48:46;;;;;;;29.80;24.70;;;;;;;19.56;100.00;99178.73;109313;1255;58900;-78
2023/06/24 06:51:13;;;;;;;28.80;23.90;;;;;;;19.55;100.00;99188.91;109314;1254;59429;-78
2023/06/24 06:53:39;;;;;;;29.10;24.60;;;;;;;19.60;100.00;99194.03;109031;1254;59082;-77
2023/06/24 06:56:05;;;;;;;27.80;24.70;;;;;;;19.72;100.00;99199.13;109302;1254;59040;-75
2023/06/24 06:58:32;;;;;;;27.60;24.70;;;;;;;19.85;100.00;99197.88;109045;1254;59034;-78
2023/06/24 07:01:01;;;;;;;30.30;24.80;;;;;;;19.93;100.00;99200.82;109290;1254;59026;-77
2023/06/24 07:03:28;;;;;;;28.60;25.40;;;;;;;19.92;100.00;99202.88;109288;1254;66075;-76
2023/06/24 07:05:54;;;;;;;27.10;23.40;;;;;;;19.87;100.00;99196.71;109327;1254;60309;-78
2023/06/24 07:08:21;;;;;;;25.80;21.60;;;;;;;19.83;100.00;99194.84;109064;1254;59088;-77
2023/06/24 07:10:47;;;;;;;26.20;22.60;;;;;;;19.78;100.00;99199.98;109289;1256;59017;-78
2023/06/24 07:13:14;;;;;;;24.20;21.50;;;;;;;19.78;100.00;99205.94;109309;1255;59080;-77
2023/06/24 07:15:40;;;;;;;26.00;21.80;;;;;;;19.76;100.00;99205.02;109007;1255;59407;-77
2023/06/24 07:18:07;;;;;;;20.90;18.70;;;;;;;19.81;100.00;99209.64;109295;1254;58952;-78
2023/06/24 07:20:33;;;;;;;25.90;20.10;;;;;;;19.86;100.00;99214.12;109300;1254;59061;-77
2023/06/24 07:23:00;;;;;;;25.30;19.60;;;;;;;19.85;100.00;99215.33;109251;1256;59052;-77
2023/06/24 07:25:28;;;;;;;22.50;19.20;;;;;;;19.82;100.00;99215.81;109324;1256;59077;-78
2023/06/24 07:27:54;;;;;;;21.00;18.00;;;;;;;19.85;100.00;99220.67;109302;1254;64843;-76
2023/06/24 07:30:21;;;;;;;19.60;17.70;;;;;;;19.92;100.00;99218.70;109336;1254;59475;-77
2023/06/24 07:32:47;;;;;;;17.70;16.00;;;;;;;20.02;100.00;99223.64;109268;1254;62797;-78
2023/06/24 07:35:15;;;;;;;17.40;15.30;;;;;;;20.08;100.00;99227.41;109272;1254;58972;-78
2023/06/24 07:37:42;;;;;;;17.60;15.50;;;;;;;20.10;100.00;99228.68;109298;1254;58967;-77
2023/06/24 07:40:08;;;;;;;15.40;13.70;;;;;;;20.08;100.00;99235.70;109319;1255;59315;-76
2023/06/24 07:42:35;;;;;;;14.80;12.60;;;;;;;20.05;100.00;99243.55;109334;1254;60044;-78
2023/06/24 07:45:02;;;;;;;13.70;12.40;;;;;;;20.04;100.00;99249.09;109297;1254;59058;-78
2023/06/24 07:47:29;;;;;;;12.20;11.00;;;;;;;19.97;100.00;99252.73;109295;1254;58944;-76
2023/06/24 07:49:55;;;;;;;11.70;10.50;;;;;;;19.88;100.00;99261.20;109308;1254;59131;-78
2023/06/24 07:52:22;;;;;;;11.70;10.60;;;;;;;19.85;100.00;99264.79;109284;1254;64832;-78
2023/06/24 07:54:48;;;;;;;11.60;10.50;;;;;;;19.81;100.00;99265.81;109282;1255;58931;-77
2023/06/24 07:57:15;;;;;;;12.00;10.80;;;;;;;19.81;100.00;99272.50;108963;1254;59494;-77
2023/06/24 07:59:42;;;;;;;12.00;10.90;;;;;;;19.82;100.00;99277.34;109279;1255;58911;-78
2023/06/24 08:02:09;;;;;;;12.10;10.40;;;;;;;19.82;100.00;99281.27;109277;1254;59210;-77
2023/06/24 08:04:36;;;;;;;11.70;10.10;;;;;;;19.77;100.00;99282.49;109285;1256;64778;-76
2023/06/24 08:07:03;;;;;;;12.40;11.20;;;;;;;19.72;100.00;99284.59;109322;1256;60097;-76
2023/06/24 08:09:29;;;;;;;11.90;10.70;;;;;;;19.72;100.00;99287.26;109038;1254;64112;-77
2023/06/24 08:11:56;;;;;;;11.00;10.00;;;;;;;19.74;100.00;99288.88;109281;1254;58963;-78
2023/06/24 08:14:22;;;;;;;11.60;10.40;;;;;;;19.79;100.00;99286.65;109312;1256;58964;-77
2023/06/24 08:16:49;;;;;;;10.80;9.70;;;;;;;19.88;100.00;99285.11;109311;1254;59449;-77
2023/06/24 08:19:15;;;;;;;12.60;10.20;;;;;;;20.07;100.00;99287.71;109314;1255;60119;-78
2023/06/24 08:21:42;;;;;;;10.80;9.90;;;;;;;20.31;100.00;99286.01;109294;1254;59198;-78
2023/06/24 08:24:08;;;;;;;10.70;9.60;;;;;;;20.52;100.00;99293.93;109300;1255;58965;-77
2023/06/24 08:26:35;;;;;;;10.10;9.10;;;;;;;20.64;100.00;99296.69;109341;1254;59047;-78
2023/06/24 08:29:01;;;;;;;10.90;9.80;;;;;;;20.74;100.00;99296.34;109279;1254;59622;-77
2023/06/24 08:31:28;;;;;;;10.30;9.30;;;;;;;20.80;100.00;99299.12;109295;1254;58980;-75
2023/06/24 08:33:58;;;;;;;10.50;9.50;;;;;;;20.86;100.00;99302.94;109243;1254;59018;-77
2023/06/24 08:36:27;;;;;;;9.90;8.90;;;;;;;20.90;100.00;99302.52;109301;1259;59257;-77
2023/06/24 08:38:54;;;;;;;10.10;9.20;;;;;;;20.97;100.00;99303.73;109008;1254;59011;-76
2023/06/24 08:41:22;;;;;;;9.90;9.00;;;;;;;20.99;100.00;99310.21;109309;1254;59288;-76
2023/06/24 08:43:48;;;;;;;9.80;8.80;;;;;;;20.96;100.00;99314.84;109301;1254;60213;-76
2023/06/24 08:46:17;;;;;;;8.80;7.90;;;;;;;20.92;100.00;99317.91;109298;1255;59023;-75
2023/06/24 08:48:45;;;;;;;8.90;8.10;;;;;;;20.85;100.00;99322.14;109261;1256;58939;-76
2023/06/24 08:51:15;;;;;;;8.70;7.90;;;;;;;20.77;100.00;99324.77;109300;1255;58897;-77
2023/06/24 08:53:43;;;;;;;8.70;7.80;;;;;;;20.69;100.00;99323.66;109320;1254;66063;-77
2023/06/24 08:56:11;;;;;;;11.20;8.50;;;;;;;20.57;100.00;99329.23;109319;1254;59026;-77
2023/06/24 08:58:38;;;;;;;8.80;7.20;;;;;;;20.55;100.00;99333.03;109246;1256;65193;-76
2023/06/24 09:01:06;;;;;;;12.80;7.70;;;;;;;20.56;100.00;99330.72;109328;1254;59285;-77
2023/06/24 09:03:33;;;;;;;8.90;8.00;;;;;;;20.52;100.00;99333.48;109033;1254;59423;-76
2023/06/24 09:05:59;;;;;;;8.20;7.40;;;;;;;20.50;100.00;99336.34;109310;1254;59267;-77
2023/06/24 09:08:26;;;;;;;7.90;7.20;;;;;;;20.55;100.00;99341.27;109249;1254;59246;-77
2023/06/24 09:10:55;;;;;;;10.70;7.60;;;;;;;20.61;100.00;99345.74;109266;1254;62818;-78
2023/06/24 09:13:33;;;;;;;9.40;7.50;;;;;;;20.67;100.00;99344.58;109293;1256;58954;-76
2023/06/24 09:16:00;;;;;;;8.10;7.40;;;;;;;20.72;100.00;99345.35;109339;1255;59078;-77
2023/06/24 09:18:32;;;;;;;7.10;6.50;;;;;;;20.73;100.00;99347.97;109192;1254;65753;-78
2023/06/24 09:21:01;;;;;;;7.90;7.10;;;;;;;20.74;100.00;99350.41;109297;1256;60112;-77
2023/06/24 09:23:27;;;;;;;7.90;7.20;;;;;;;20.78;100.00;99356.23;109286;1254;63010;-76
2023/06/24 09:25:57;;;;;;;8.40;7.50;;;;;;;20.80;100.00;99358.06;109235;1256;58943;-76
2023/06/24 09:28:29;;;;;;;7.50;6.60;;;;;;;20.79;100.00;99361.41;109310;1254;59216;-76
2023/06/24 09:31:09;;;;;;;8.40;7.00;;;;;;;20.75;100.00;99361.65;109307;1254;66055;-76
2023/06/24 09:33:36;;;;;;;7.50;6.80;;;;;;;20.66;100.00;99365.45;109032;1258;60057;-78
2023/06/24 09:36:03;;;;;;;7.40;6.70;;;;;;;20.61;100.00;99370.14;109274;1255;59078;-77
2023/06/24 09:38:38;;;;;;;8.00;6.70;;;;;;;20.60;100.00;99371.13;109268;1254;59358;-76
2023/06/24 09:41:05;;;;;;;8.00;7.30;;;;;;;20.64;100.00;99370.85;109294;1255;59255;-77
2023/06/24 09:43:36;;;;;;;7.90;6.90;;;;;;;20.66;100.00;99373.94;109304;1258;66443;-77
2023/06/24 09:46:04;;;;;;;8.40;7.00;;;;;;;20.67;100.00;99380.05;109307;1254;60133;-78
2023/06/24 09:48:31;;;;;;;7.90;7.10;;;;;;;20.69;100.00;99378.31;109277;1254;72625;-78
2023/06/24 09:51:03;;;;;;;8.00;7.30;;;;;;;20.74;100.00;99379.33;109282;1254;59017;-78
2023/06/24 09:53:33;;;;;;;10.60;6.90;;;;;;;20.84;100.00;99377.69;109286;1256;58949;-77
2023/06/24 09:56:01;;;;;;;7.60;6.80;;;;;;;20.93;100.00;99379.42;109307;1254;66052;-77
2023/06/24 09:58:32;;;;;;;7.70;7.10;;;;;;;20.98;100.00;99383.85;109247;1254;59024;-76
2023/06/24 10:01:03;;;;;;;7.70;7.00;;;;;;;21.06;100.00;99381.66;109276;1254;64134;-77
2023/06/24 10:03:32;;;;;;;7.90;6.60;;;;;;;21.20;100.00;99386.05;109227;1255;61047;-77
2023/06/24 10:06:01;;;;;;;8.20;7.40;;;;;;;21.32;100.00;99384.38;109303;1254;59164;-77
2023/06/24 10:08:30;;;;;;;8.30;7.40;;;;;;;21.42;100.00;99381.98;109255;1254;66060;-78
2023/06/24 10:10:57;;;;;;;8.50;6.90;;;;;;;21.53;100.00;99382.06;109153;1254;60160;-77
2023/06/24 10:13:23;;;;;;;9.20;7.40;;;;;;;21.71;100.00;99386.67;109264;1256;64156;-77
2023/06/24 10:15:50;;;;;;;8.80;7.60;;;;;;;21.86;100.00;99387.29;109253;1257;59182;-76
2023/06/24 10:18:33;;;;;;;10.30;8.40;;;;;;;22.01;100.00;99390.61;109297;1255;59020;-77
2023/06/24 10:21:01;;;;;;;9.70;7.00;;;;;;;22.10;100.00;99391.61;109295;1255;64846;-76
2023/06/24 10:23:43;;;;;;;8.00;7.10;;;;;;;22.17;100.00;99393.10;109278;1255;58983;-77
2023/06/24 10:26:21;;;;;;;8.30;7.40;;;;;;;22.12;100.00;99393.73;109286;1259;62809;-77
2023/06/24 10:29:17;;;;;;;8.20;7.40;;;;;;;22.16;100.00;99392.21;109277;1254;59049;-77
2023/06/24 10:31:54;;;;;;;8.90;8.10;;;;;;;22.22;100.00;99391.58;109264;1254;58940;-77
2023/06/24 10:34:23;;;;;;;9.40;8.30;;;;;;;22.26;100.00;99393.95;109280;1254;66077;-76
2023/06/24 10:36:57;;;;;;;9.00;8.10;;;;;;;22.23;100.00;99398.97;109232;1254;59929;-77
2023/06/24 10:39:40;;;;;;;13.20;8.00;;;;;;;22.19;100.00;99398.30;108995;1254;62879;-77
2023/06/24 10:42:38;;;;;;;9.10;8.30;;;;;;;22.12;100.00;99399.19;109278;1254;59064;-77
2023/06/24 10:45:10;;;;;;;8.10;7.30;;;;;;;22.07;100.00;99402.06;109306;1256;58954;-78
2023/06/24 10:47:41;;;;;;;9.60;8.60;;;;;;;22.03;100.00;99404.70;109291;1255;64737;-78
2023/06/24 10:50:09;;;;;;;9.20;8.30;;;;;;;21.96;100.00;99404.71;109306;1254;58957;-77
2023/06/24 10:52:47;;;;;;;9.10;8.30;;;;;;;21.88;100.00;99406.49;109290;1254;63073;-77
2023/06/24 10:55:16;;;;;;;9.30;8.50;;;;;;;21.78;100.00;99407.99;109275;1259;58996;-78
2023/06/24 10:57:43;;;;;;;9.40;8.50;;;;;;;21.67;100.00;99403.54;109273;1259;58873;-77
2023/06/24 11:00:11;;;;;;;9.70;8.70;;;;;;;21.57;100.00;99404.08;109265;1254;64849;-77
2023/06/24 11:02:38;;;;;;;8.90;8.20;;;;;;;21.48;100.00;99404.42;109293;1257;59867;-77
2023/06/24 11:05:05;;;;;;;11.70;8.70;;;;;;;21.45;100.00;99398.80;109305;1255;62632;-77
2023/06/24 11:07:38;;;;;;;10.60;8.70;;;;;;;21.43;100.00;99399.52;109273;1254;59041;-78
2023/06/24 11:10:05;;;;;;;12.80;8.60;;;;;;;21.42;100.00;99403.48;108980;1255;59281;-78
2023/06/24 11:12:37;;;;;;;9.50;8.50;;;;;;;21.42;100.00;99402.17;109129;1255;66054;-77
2023/06/24 11:15:06;;;;;;;9.50;8.60;;;;;;;21.41;100.00;99404.85;109332;1254;59096;-77
2023/06/24 11:17:34;;;;;;;8.50;7.60;;;;;;;21.36;100.00;99402.46;109075;1254;64031;-77